createdAt,value
2018-05-06T00:00:42.812Z,0.00
2018-05-06T00:02:36.082Z,0.00
2018-05-06T00:03:36.020Z,0.00
2018-05-06T00:05:29.311Z,0.00
2018-05-06T00:06:29.228Z,0.00
2018-05-06T00:08:22.502Z,0.00
2018-05-06T00:09:22.438Z,0.00
2018-05-06T00:11:15.731Z,0.00
2018-05-06T00:12:15.648Z,0.00
2018-05-06T00:14:08.914Z,0.00
2018-05-06T00:15:08.852Z,0.00
2018-05-06T00:17:02.134Z,0.00
2018-05-06T00:18:02.051Z,0.00
2018-05-06T00:19:55.346Z,0.00
2018-05-06T00:20:55.263Z,0.00
2018-05-06T00:22:48.639Z,0.00
2018-05-06T00:23:48.469Z,0.00
2018-05-06T00:25:41.868Z,0.00
2018-05-06T00:26:41.678Z,0.00
2018-05-06T00:28:34.950Z,0.00
2018-05-06T00:29:34.888Z,0.00
2018-05-06T00:31:28.182Z,0.00
2018-05-06T00:32:28.099Z,0.00
2018-05-06T00:34:21.373Z,0.00
2018-05-06T00:35:21.308Z,0.00
2018-05-06T00:37:14.705Z,0.00
2018-05-06T00:38:14.516Z,0.00
2018-05-06T00:40:07.800Z,0.00
2018-05-06T00:41:07.718Z,0.00
2018-05-06T00:43:00.992Z,0.00
2018-05-06T00:44:00.924Z,0.00
2018-05-06T00:45:54.216Z,0.00
2018-05-06T00:46:54.131Z,0.00
2018-05-06T00:48:47.397Z,0.00
2018-05-06T00:49:47.330Z,0.00
2018-05-06T00:51:40.729Z,0.00
2018-05-06T00:52:40.538Z,0.00
2018-05-06T00:54:33.918Z,0.00
2018-05-06T00:55:33.750Z,0.00
2018-05-06T00:57:28.028Z,0.00
2018-05-06T00:58:27.946Z,0.00
2018-05-06T01:00:21.341Z,0.00
2018-05-06T01:01:21.151Z,0.00
2018-05-06T01:03:14.436Z,0.00
2018-05-06T01:04:14.371Z,0.00
2018-05-06T01:06:07.661Z,0.00
2018-05-06T01:07:07.577Z,0.00
2018-05-06T01:09:01.459Z,0.00
2018-05-06T01:10:00.786Z,0.00
2018-05-06T01:11:54.075Z,0.00
2018-05-06T01:12:53.993Z,0.00
2018-05-06T01:14:47.265Z,0.00
2018-05-06T01:15:47.200Z,0.00
2018-05-06T01:17:40.596Z,0.00
2018-05-06T01:18:40.399Z,0.00
2018-05-06T01:20:33.690Z,0.00
2018-05-06T01:21:33.607Z,0.00
2018-05-06T01:23:26.876Z,0.00
2018-05-06T01:24:26.812Z,0.00
2018-05-06T01:26:20.094Z,0.00
2018-05-06T01:27:20.015Z,0.00
2018-05-06T01:29:13.285Z,0.00
2018-05-06T01:30:13.226Z,0.00
2018-05-06T01:32:06.512Z,0.00
2018-05-06T01:33:06.429Z,0.00
2018-05-06T01:34:59.697Z,0.00
2018-05-06T01:35:59.632Z,0.00
2018-05-06T01:37:53.911Z,0.00
2018-05-06T01:38:53.828Z,0.00
2018-05-06T01:40:47.224Z,0.00
2018-05-06T01:41:47.034Z,0.00
2018-05-06T01:43:40.432Z,0.00
2018-05-06T01:44:40.367Z,0.00
2018-05-06T01:46:33.658Z,0.00
2018-05-06T01:47:33.576Z,0.00
2018-05-06T01:49:26.845Z,0.00
2018-05-06T01:50:26.780Z,0.00
2018-05-06T01:52:20.069Z,0.00
2018-05-06T01:53:19.985Z,0.00
2018-05-06T01:55:13.257Z,0.00
2018-05-06T01:56:13.191Z,0.00
2018-05-06T01:58:06.487Z,0.00
2018-05-06T01:59:06.399Z,0.00
2018-05-06T02:00:59.688Z,0.00
2018-05-06T02:01:59.603Z,0.00
2018-05-06T02:03:52.874Z,0.00
2018-05-06T02:04:52.813Z,0.00
2018-05-06T02:06:46.099Z,0.00
2018-05-06T02:07:46.017Z,0.00
2018-05-06T02:09:39.287Z,0.00
2018-05-06T02:10:39.222Z,0.00
2018-05-06T02:12:32.619Z,0.00
2018-05-06T02:13:32.429Z,0.00
2018-05-06T02:15:25.702Z,0.00
2018-05-06T02:16:25.632Z,0.00
2018-05-06T02:18:19.030Z,0.00
2018-05-06T02:19:18.839Z,0.00
2018-05-06T02:21:12.139Z,0.00
2018-05-06T02:22:12.054Z,0.00
2018-05-06T02:24:05.324Z,0.00
2018-05-06T02:25:05.258Z,0.00
2018-05-06T02:26:58.545Z,0.00
2018-05-06T02:27:58.463Z,0.00
2018-05-06T02:29:51.840Z,0.00
2018-05-06T02:30:51.667Z,0.00
2018-05-06T02:32:44.956Z,0.00
2018-05-06T02:33:44.872Z,0.00
2018-05-06T02:35:38.253Z,0.00
2018-05-06T02:36:38.076Z,0.00
2018-05-06T02:38:31.365Z,0.00
2018-05-06T02:39:31.362Z,0.00
2018-05-06T02:41:24.568Z,0.00
2018-05-06T02:42:24.484Z,0.00
2018-05-06T02:44:17.746Z,0.00
2018-05-06T02:45:17.678Z,0.00
2018-05-06T02:47:10.963Z,0.00
2018-05-06T02:48:10.876Z,0.00
2018-05-06T02:50:04.146Z,0.00
2018-05-06T02:51:04.080Z,0.00
2018-05-06T02:52:57.473Z,0.00
2018-05-06T02:53:57.288Z,0.00
2018-05-06T02:55:50.595Z,0.00
2018-05-06T02:56:50.491Z,0.00
2018-05-06T02:58:43.763Z,0.00
2018-05-06T02:59:43.697Z,0.00
2018-05-06T03:01:36.982Z,0.00
2018-05-06T03:02:36.899Z,0.00
2018-05-06T03:04:30.168Z,0.00
2018-05-06T03:05:30.103Z,0.00
2018-05-06T03:07:23.384Z,0.00
2018-05-06T03:08:23.297Z,4.00
2018-05-06T03:10:16.571Z,4.00
2018-05-06T03:11:16.501Z,0.00
2018-05-06T03:13:09.795Z,4.00
2018-05-06T03:14:09.706Z,4.00
2018-05-06T03:16:03.005Z,4.00
2018-05-06T03:17:02.909Z,4.00
2018-05-06T03:18:56.307Z,4.00
2018-05-06T03:19:56.113Z,8.00
2018-05-06T03:21:49.404Z,8.00
2018-05-06T03:22:49.319Z,12.00
2018-05-06T03:24:42.590Z,12.00
2018-05-06T03:25:42.523Z,16.00
2018-05-06T03:27:35.803Z,20.00
2018-05-06T03:28:35.724Z,20.00
2018-05-06T03:30:28.985Z,28.00
2018-05-06T03:31:28.921Z,32.00
2018-05-06T03:33:22.315Z,40.00
2018-05-06T03:34:22.124Z,44.00
2018-05-06T03:36:15.421Z,56.00
2018-05-06T03:37:15.330Z,60.00
2018-05-06T03:39:09.599Z,76.00
2018-05-06T03:40:09.533Z,84.00
2018-05-06T03:42:02.822Z,100.00
2018-05-06T03:43:02.737Z,112.00
2018-05-06T03:44:56.010Z,132.00
2018-05-06T03:45:55.940Z,144.00
2018-05-06T03:47:50.230Z,168.00
2018-05-06T03:48:50.144Z,184.00
2018-05-06T03:50:43.413Z,208.00
2018-05-06T03:51:43.347Z,224.00
2018-05-06T03:53:36.641Z,260.00
2018-05-06T03:54:36.551Z,276.00
2018-05-06T03:56:29.831Z,312.00
2018-05-06T03:57:29.744Z,336.00
2018-05-06T03:59:23.014Z,376.00
2018-05-06T04:00:22.988Z,396.00
2018-05-06T04:02:16.239Z,436.00
2018-05-06T04:03:16.149Z,460.00
2018-05-06T04:05:10.433Z,500.00
2018-05-06T04:06:10.370Z,524.00
2018-05-06T04:08:03.657Z,572.00
2018-05-06T04:09:03.568Z,596.00
2018-05-06T04:10:56.837Z,640.00
2018-05-06T04:11:56.867Z,664.00
2018-05-06T04:13:50.058Z,712.00
2018-05-06T04:14:49.972Z,736.00
2018-05-06T04:16:43.263Z,784.00
2018-05-06T04:17:43.173Z,804.00
2018-05-06T04:19:37.053Z,848.00
2018-05-06T04:20:36.377Z,872.00
2018-05-06T04:22:29.663Z,912.00
2018-05-06T04:23:29.578Z,936.00
2018-05-06T04:25:22.958Z,980.00
2018-05-06T04:26:22.780Z,1000.00
2018-05-06T04:28:16.077Z,1036.00
2018-05-06T04:29:15.995Z,1060.00
2018-05-06T04:31:09.256Z,1096.00
2018-05-06T04:32:09.192Z,1116.00
2018-05-06T04:34:02.482Z,1148.00
2018-05-06T04:35:02.398Z,1168.00
2018-05-06T04:36:55.795Z,1204.00
2018-05-06T04:37:55.599Z,1220.00
2018-05-06T04:39:48.866Z,1252.00
2018-05-06T04:40:48.808Z,1268.00
2018-05-06T04:42:42.091Z,1296.00
2018-05-06T04:43:42.007Z,1316.00
2018-05-06T04:45:35.276Z,1340.00
2018-05-06T04:46:35.211Z,1356.00
2018-05-06T04:48:28.497Z,1384.00
2018-05-06T04:49:28.414Z,1400.00
2018-05-06T04:51:22.293Z,1424.00
2018-05-06T04:52:21.617Z,1440.00
2018-05-06T04:54:14.904Z,1460.00
2018-05-06T04:55:14.822Z,1476.00
2018-05-06T04:57:08.214Z,1500.00
2018-05-06T04:58:08.012Z,1512.00
2018-05-06T05:00:01.285Z,1532.00
2018-05-06T05:01:01.225Z,1548.00
2018-05-06T05:02:54.506Z,1568.00
2018-05-06T05:03:54.423Z,1580.00
2018-05-06T05:05:47.688Z,1600.00
2018-05-06T05:06:47.622Z,1612.00
2018-05-06T05:08:41.020Z,1632.00
2018-05-06T05:09:40.853Z,1640.00
2018-05-06T05:11:34.092Z,1664.00
2018-05-06T05:12:34.028Z,1676.00
2018-05-06T05:14:28.445Z,1692.00
2018-05-06T05:15:28.361Z,1700.00
2018-05-06T05:17:21.638Z,1724.00
2018-05-06T05:18:21.561Z,1728.00
2018-05-06T05:20:14.825Z,1744.00
2018-05-06T05:21:14.763Z,1756.00
2018-05-06T05:23:08.660Z,1772.00
2018-05-06T05:24:07.963Z,1776.00
2018-05-06T05:26:01.231Z,1792.00
2018-05-06T05:27:01.171Z,1800.00
2018-05-06T05:28:54.458Z,1812.00
2018-05-06T05:29:54.371Z,1820.00
2018-05-06T05:31:47.640Z,1832.00
2018-05-06T05:32:47.576Z,1840.00
2018-05-06T05:34:40.867Z,1856.00
2018-05-06T05:35:40.780Z,1860.00
2018-05-06T05:37:34.175Z,1876.00
2018-05-06T05:38:33.976Z,1880.00
2018-05-06T05:40:27.352Z,1892.00
2018-05-06T05:41:27.179Z,1900.00
2018-05-06T05:43:20.578Z,1916.00
2018-05-06T05:44:20.385Z,1920.00
2018-05-06T05:46:13.655Z,1936.00
2018-05-06T05:47:13.591Z,1940.00
2018-05-06T05:49:07.878Z,1960.00
2018-05-06T05:50:07.795Z,1960.00
2018-05-06T05:52:01.066Z,1972.00
2018-05-06T05:53:00.999Z,1984.00
2018-05-06T05:54:54.900Z,2000.00
2018-05-06T05:55:54.378Z,2004.00
2018-05-06T05:57:47.655Z,2016.00
2018-05-06T05:58:47.569Z,2028.00
2018-05-06T06:00:40.988Z,2040.00
2018-05-06T06:01:40.763Z,2048.00
2018-05-06T06:03:34.044Z,2060.00
2018-05-06T06:04:33.961Z,2068.00
2018-05-06T06:06:27.225Z,2080.00
2018-05-06T06:07:27.156Z,2088.00
2018-05-06T06:09:20.454Z,2104.00
2018-05-06T06:10:20.370Z,2108.00
2018-05-06T06:12:13.642Z,2124.00
2018-05-06T06:13:13.578Z,2132.00
2018-05-06T06:15:06.873Z,2140.00
2018-05-06T06:16:06.793Z,2148.00
2018-05-06T06:18:00.068Z,2168.00
2018-05-06T06:18:59.987Z,2172.00
2018-05-06T06:20:53.363Z,2192.00
2018-05-06T06:21:53.189Z,2196.00
2018-05-06T06:23:46.482Z,2220.00
2018-05-06T06:24:46.399Z,2232.00
2018-05-06T06:26:39.776Z,2244.00
2018-05-06T06:27:39.609Z,2276.00
2018-05-06T06:29:32.904Z,2308.00
2018-05-06T06:30:32.814Z,2320.00
2018-05-06T06:32:26.091Z,2340.00
2018-05-06T06:33:26.021Z,2348.00
2018-05-06T06:35:19.388Z,2376.00
2018-05-06T06:36:19.230Z,2392.00
2018-05-06T06:38:12.563Z,2464.00
2018-05-06T06:39:12.439Z,2516.00
2018-05-06T06:41:05.713Z,7036.00
2018-05-06T06:42:05.647Z,9164.00
2018-05-06T06:43:58.939Z,9528.00
2018-05-06T06:44:58.855Z,9764.00
2018-05-06T06:46:52.231Z,9968.00
2018-05-06T06:47:52.066Z,10092.00
2018-05-06T06:49:45.359Z,10048.00
2018-05-06T06:50:45.279Z,9972.00
2018-05-06T06:52:38.558Z,9832.00
2018-05-06T06:53:38.501Z,9792.00
2018-05-06T06:55:31.897Z,9640.00
2018-05-06T06:56:31.716Z,9568.00
2018-05-06T06:58:25.624Z,9364.00
2018-05-06T06:59:24.934Z,9304.00
2018-05-06T07:01:18.318Z,9152.00
2018-05-06T07:02:18.153Z,9060.00
2018-05-06T07:04:11.557Z,8832.00
2018-05-06T07:05:11.376Z,8676.00
2018-05-06T07:07:04.651Z,8464.00
2018-05-06T07:08:04.590Z,8384.00
2018-05-06T07:09:59.000Z,8312.00
2018-05-06T07:10:58.816Z,8316.00
2018-05-06T07:12:53.201Z,8372.00
2018-05-06T07:13:53.048Z,8412.00
2018-05-06T07:15:46.458Z,8728.00
2018-05-06T07:16:46.379Z,9284.00
2018-05-06T07:18:39.782Z,10420.00
2018-05-06T07:19:39.603Z,10500.00
2018-05-06T07:21:32.888Z,9812.00
2018-05-06T07:22:32.828Z,9416.00
2018-05-06T07:24:26.134Z,8944.00
2018-05-06T07:25:26.060Z,8788.00
2018-05-06T07:27:19.336Z,8648.00
2018-05-06T07:28:19.278Z,8596.00
2018-05-06T07:30:12.682Z,8500.00
2018-05-06T07:31:12.501Z,8460.00
2018-05-06T07:33:05.787Z,8416.00
2018-05-06T07:34:05.732Z,8392.00
2018-05-06T07:35:59.035Z,8364.00
2018-05-06T07:36:58.958Z,8328.00
2018-05-06T07:38:52.455Z,8276.00
2018-05-06T07:39:52.382Z,8244.00
2018-05-06T07:41:45.663Z,8064.00
2018-05-06T07:42:45.604Z,8012.00
2018-05-06T07:44:39.012Z,7920.00
2018-05-06T07:45:38.831Z,7872.00
2018-05-06T07:47:32.107Z,7768.00
2018-05-06T07:48:32.049Z,7692.00
2018-05-06T07:50:25.455Z,7596.00
2018-05-06T07:51:25.291Z,7536.00
2018-05-06T07:53:18.562Z,7412.00
2018-05-06T07:54:18.504Z,7348.00
2018-05-06T07:56:12.410Z,7260.00
2018-05-06T07:57:11.730Z,7236.00
2018-05-06T07:59:05.032Z,7168.00
2018-05-06T08:00:04.957Z,7128.00
2018-05-06T08:01:58.439Z,7076.00
2018-05-06T08:02:58.379Z,7040.00
2018-05-06T08:04:51.682Z,6968.00
2018-05-06T08:05:51.605Z,6964.00
2018-05-06T08:07:44.880Z,6932.00
2018-05-06T08:08:44.822Z,6916.00
2018-05-06T08:10:38.227Z,6892.00
2018-05-06T08:11:38.049Z,6872.00
2018-05-06T08:13:31.434Z,6864.00
2018-05-06T08:14:31.291Z,6856.00
2018-05-06T08:16:24.662Z,6828.00
2018-05-06T08:17:24.509Z,6816.00
2018-05-06T08:19:17.814Z,6808.00
2018-05-06T08:20:17.735Z,6800.00
2018-05-06T08:22:11.021Z,6804.00
2018-05-06T08:23:10.965Z,6824.00
2018-05-06T08:25:05.269Z,6872.00
2018-05-06T08:26:05.193Z,6880.00
2018-05-06T08:27:58.470Z,6928.00
2018-05-06T08:28:58.410Z,6936.00
2018-05-06T08:30:51.817Z,6964.00
2018-05-06T08:31:51.641Z,6976.00
2018-05-06T08:33:44.932Z,7028.00
2018-05-06T08:34:44.877Z,7032.00
2018-05-06T08:36:39.180Z,7084.00
2018-05-06T08:37:39.179Z,7112.00
2018-05-06T08:39:32.459Z,7172.00
2018-05-06T08:40:32.383Z,7192.00
2018-05-06T08:42:25.668Z,7244.00
2018-05-06T08:43:25.618Z,7264.00
2018-05-06T08:45:19.021Z,7296.00
2018-05-06T08:46:18.839Z,7320.00
2018-05-06T08:48:12.131Z,7364.00
2018-05-06T08:49:12.076Z,7360.00
2018-05-06T08:51:06.480Z,7412.00
2018-05-06T08:52:06.389Z,7440.00
2018-05-06T08:54:00.672Z,7524.00
2018-05-06T08:55:00.613Z,7512.00
2018-05-06T08:56:55.910Z,7512.00
2018-05-06T08:57:55.835Z,7520.00
2018-05-06T08:59:49.141Z,7560.00
2018-05-06T09:00:49.065Z,7580.00
2018-05-06T09:02:42.441Z,7588.00
2018-05-06T09:03:42.391Z,7620.00
2018-05-06T09:05:35.700Z,7612.00
2018-05-06T09:06:35.625Z,7564.00
2018-05-06T09:08:29.019Z,7564.00
2018-05-06T09:09:28.857Z,7568.00
2018-05-06T09:11:22.265Z,7560.00
2018-05-06T09:12:22.090Z,7560.00
2018-05-06T09:14:15.380Z,7596.00
2018-05-06T09:15:15.322Z,7596.00
2018-05-06T09:17:08.736Z,7636.00
2018-05-06T09:18:08.557Z,7672.00
2018-05-06T09:20:01.866Z,7696.00
2018-05-06T09:21:01.793Z,7704.00
2018-05-06T09:22:56.080Z,7724.00
2018-05-06T09:23:56.022Z,7752.00
2018-05-06T09:25:49.327Z,7808.00
2018-05-06T09:26:49.260Z,7816.00
2018-05-06T09:28:42.543Z,7844.00
2018-05-06T09:29:42.490Z,7832.00
2018-05-06T09:31:35.803Z,7892.00
2018-05-06T09:32:35.721Z,7928.00
2018-05-06T09:34:29.013Z,8012.00
2018-05-06T09:35:28.956Z,8048.00
2018-05-06T09:37:22.258Z,8144.00
2018-05-06T09:38:22.202Z,8176.00
2018-05-06T09:40:16.493Z,8220.00
2018-05-06T09:41:16.415Z,8228.00
2018-05-06T09:43:09.709Z,8260.00
2018-05-06T09:44:09.654Z,8304.00
2018-05-06T09:46:02.964Z,8316.00
2018-05-06T09:47:02.889Z,8316.00
2018-05-06T09:48:56.181Z,8360.00
2018-05-06T09:49:56.126Z,8372.00
2018-05-06T09:51:49.437Z,8456.00
2018-05-06T09:52:49.362Z,8556.00
2018-05-06T09:54:42.655Z,8628.00
2018-05-06T09:55:42.601Z,8680.00
2018-05-06T09:57:35.904Z,8740.00
2018-05-06T09:58:35.835Z,8792.00
2018-05-06T10:00:29.143Z,8868.00
2018-05-06T10:01:29.073Z,8888.00
2018-05-06T10:03:22.432Z,8888.00
2018-05-06T10:04:22.380Z,8900.00
2018-05-06T10:06:15.693Z,8912.00
2018-05-06T10:07:15.622Z,8868.00
2018-05-06T10:09:08.915Z,8884.00
2018-05-06T10:10:08.861Z,8988.00
2018-05-06T10:12:02.178Z,9220.00
2018-05-06T10:13:02.103Z,9392.00
2018-05-06T10:14:55.497Z,9576.00
2018-05-06T10:15:55.466Z,9632.00
2018-05-06T10:17:48.660Z,9776.00
2018-05-06T10:18:48.592Z,9888.00
2018-05-06T10:20:42.002Z,9792.00
2018-05-06T10:21:41.830Z,9600.00
2018-05-06T10:23:35.125Z,9348.00
2018-05-06T10:24:35.075Z,9240.00
2018-05-06T10:26:28.490Z,9168.00
2018-05-06T10:27:28.390Z,9072.00
2018-05-06T10:29:21.687Z,9036.00
2018-05-06T10:30:21.634Z,8972.00
2018-05-06T10:32:15.050Z,8760.00
2018-05-06T10:33:14.880Z,8632.00
2018-05-06T10:35:08.178Z,8480.00
2018-05-06T10:36:08.124Z,8452.00
2018-05-06T10:38:02.040Z,8432.00
2018-05-06T10:39:01.362Z,8404.00
2018-05-06T10:40:54.852Z,8400.00
2018-05-06T10:41:54.611Z,8452.00
2018-05-06T10:43:48.004Z,8436.00
2018-05-06T10:44:47.854Z,8460.00
2018-05-06T10:46:41.173Z,8476.00
2018-05-06T10:47:41.103Z,8484.00
2018-05-06T10:49:34.508Z,8516.00
2018-05-06T10:50:34.352Z,8540.00
2018-05-06T10:52:27.668Z,8660.00
2018-05-06T10:53:27.597Z,8812.00
2018-05-06T10:55:20.993Z,9780.00
2018-05-06T10:56:20.849Z,9880.00
2018-05-06T10:58:14.162Z,9708.00
2018-05-06T10:59:14.091Z,9616.00
2018-05-06T11:01:07.507Z,9576.00
2018-05-06T11:02:07.325Z,9604.00
2018-05-06T11:04:00.663Z,9544.00
2018-05-06T11:05:00.564Z,9436.00
2018-05-06T11:06:53.976Z,9340.00
2018-05-06T11:07:53.797Z,9380.00
2018-05-06T11:09:47.693Z,9172.00
2018-05-06T11:10:47.033Z,9120.00
2018-05-06T11:12:40.354Z,9004.00
2018-05-06T11:13:40.286Z,8272.00
2018-05-06T11:15:33.568Z,6632.00
2018-05-06T11:16:33.515Z,6532.00
2018-05-06T11:18:26.821Z,6472.00
2018-05-06T11:19:26.746Z,6416.00
2018-05-06T11:21:20.049Z,6360.00
2018-05-06T11:22:19.976Z,6356.00
2018-05-06T11:24:13.259Z,6304.00
2018-05-06T11:25:13.207Z,6244.00
2018-05-06T11:27:06.617Z,6048.00
2018-05-06T11:28:06.438Z,5936.00
2018-05-06T11:29:59.717Z,5808.00
2018-05-06T11:30:59.669Z,5812.00
2018-05-06T11:32:52.962Z,6008.00
2018-05-06T11:33:52.893Z,5988.00
2018-05-06T11:35:46.169Z,5980.00
2018-05-06T11:36:46.114Z,5908.00
2018-05-06T11:38:40.414Z,5916.00
2018-05-06T11:39:40.340Z,5916.00
2018-05-06T11:41:33.638Z,5736.00
2018-05-06T11:42:33.564Z,5780.00
2018-05-06T11:44:26.845Z,5708.00
2018-05-06T11:45:26.787Z,5716.00
2018-05-06T11:47:20.089Z,5584.00
2018-05-06T11:48:20.013Z,5684.00
2018-05-06T11:50:13.297Z,5644.00
2018-05-06T11:51:13.236Z,5692.00
2018-05-06T11:53:06.537Z,5672.00
2018-05-06T11:54:06.460Z,5668.00
2018-05-06T11:55:59.870Z,5660.00
2018-05-06T11:56:59.685Z,5660.00
2018-05-06T11:58:52.982Z,5652.00
2018-05-06T11:59:52.907Z,5644.00
2018-05-06T12:01:46.217Z,5624.00
2018-05-06T12:02:46.132Z,5616.00
2018-05-06T12:04:39.411Z,5572.00
2018-05-06T12:05:39.355Z,5556.00
2018-05-06T12:07:32.655Z,5548.00
2018-05-06T12:08:32.582Z,5540.00
2018-05-06T12:10:25.863Z,5544.00
2018-05-06T12:11:25.805Z,5532.00
2018-05-06T12:13:19.103Z,5516.00
2018-05-06T12:14:19.037Z,5500.00
2018-05-06T12:16:12.329Z,5480.00
2018-05-06T12:17:12.256Z,5484.00
2018-05-06T12:19:05.592Z,5452.00
2018-05-06T12:20:05.479Z,5448.00
2018-05-06T12:21:58.790Z,5424.00
2018-05-06T12:22:58.705Z,5412.00
2018-05-06T12:24:51.982Z,5420.00
2018-05-06T12:25:51.926Z,5420.00
2018-05-06T12:27:45.337Z,5416.00
2018-05-06T12:28:45.151Z,5396.00
2018-05-06T12:30:38.543Z,5372.00
2018-05-06T12:31:38.377Z,5360.00
2018-05-06T12:33:31.672Z,5340.00
2018-05-06T12:34:31.599Z,5324.00
2018-05-06T12:36:24.899Z,5308.00
2018-05-06T12:37:24.824Z,5304.00
2018-05-06T12:39:18.122Z,5264.00
2018-05-06T12:40:18.049Z,5256.00
2018-05-06T12:42:11.456Z,5240.00
2018-05-06T12:43:11.280Z,5224.00
2018-05-06T12:45:04.574Z,5244.00
2018-05-06T12:46:04.498Z,5260.00
2018-05-06T12:47:57.908Z,5212.00
2018-05-06T12:48:57.723Z,5212.00
2018-05-06T12:50:51.002Z,5188.00
2018-05-06T12:51:50.946Z,5176.00
2018-05-06T12:53:44.247Z,5172.00
2018-05-06T12:54:44.173Z,5164.00
2018-05-06T12:56:37.483Z,5144.00
2018-05-06T12:57:37.397Z,5148.00
2018-05-06T12:59:30.787Z,5128.00
2018-05-06T13:00:30.631Z,5116.00
2018-05-06T13:02:24.071Z,5096.00
2018-05-06T13:03:23.857Z,5076.00
2018-05-06T13:05:18.247Z,5068.00
2018-05-06T13:06:18.131Z,5080.00
2018-05-06T13:08:11.383Z,5068.00
2018-05-06T13:09:11.306Z,5052.00
2018-05-06T13:11:04.586Z,5028.00
2018-05-06T13:12:04.531Z,5020.00
2018-05-06T13:13:57.942Z,5008.00
2018-05-06T13:14:57.754Z,5000.00
2018-05-06T13:16:51.062Z,4988.00
2018-05-06T13:17:50.985Z,4980.00
2018-05-06T13:19:44.379Z,4968.00
2018-05-06T13:20:44.273Z,4956.00
2018-05-06T13:22:37.683Z,4948.00
2018-05-06T13:23:37.495Z,4916.00
2018-05-06T13:25:30.890Z,4916.00
2018-05-06T13:26:30.719Z,4876.00
2018-05-06T13:28:24.019Z,4860.00
2018-05-06T13:29:23.944Z,4852.00
2018-05-06T13:31:17.224Z,4816.00
2018-05-06T13:32:17.169Z,4816.00
2018-05-06T13:34:10.471Z,4796.00
2018-05-06T13:35:10.395Z,4780.00
2018-05-06T13:37:03.700Z,4780.00
2018-05-06T13:38:03.625Z,4768.00
2018-05-06T13:39:56.907Z,4764.00
2018-05-06T13:40:56.850Z,4744.00
2018-05-06T13:42:50.151Z,4736.00
2018-05-06T13:43:50.077Z,4740.00
2018-05-06T13:45:43.359Z,4724.00
2018-05-06T13:46:43.304Z,4720.00
2018-05-06T13:48:36.603Z,4700.00
2018-05-06T13:49:36.534Z,4704.00
2018-05-06T13:51:29.921Z,4656.00
2018-05-06T13:52:29.756Z,4692.00
2018-05-06T13:54:23.057Z,4664.00
2018-05-06T13:55:22.984Z,4656.00
2018-05-06T13:57:16.351Z,4632.00
2018-05-06T13:58:16.276Z,4644.00
2018-05-06T14:00:09.666Z,4652.00
2018-05-06T14:01:09.504Z,4612.00
2018-05-06T14:03:02.313Z,4644.00
2018-05-06T14:04:02.236Z,4644.00
2018-05-06T14:05:55.519Z,4632.00
2018-05-06T14:06:55.464Z,4640.00
2018-05-06T14:08:48.825Z,4660.00
2018-05-06T14:09:48.711Z,4620.00
2018-05-06T14:11:41.993Z,4656.00
2018-05-06T14:12:41.938Z,4648.00
2018-05-06T14:14:35.350Z,4624.00
2018-05-06T14:15:35.162Z,4624.00
2018-05-06T14:17:28.467Z,4624.00
2018-05-06T14:18:28.391Z,4652.00
2018-05-06T14:20:21.682Z,4656.00
2018-05-06T14:21:21.634Z,4644.00
2018-05-06T14:23:15.041Z,4628.00
2018-05-06T14:24:14.872Z,4624.00
2018-05-06T14:26:08.146Z,4604.00
2018-05-06T14:27:08.093Z,4612.00
2018-05-06T14:29:01.393Z,4608.00
2018-05-06T14:30:01.381Z,4592.00
2018-05-06T14:31:54.602Z,4584.00
2018-05-06T14:32:54.545Z,4584.00
2018-05-06T14:34:47.849Z,4572.00
2018-05-06T14:35:47.779Z,4552.00
2018-05-06T14:37:41.083Z,4548.00
2018-05-06T14:38:41.009Z,4556.00
2018-05-06T14:40:34.334Z,4540.00
2018-05-06T14:41:34.276Z,4532.00
2018-05-06T14:43:27.578Z,4524.00
2018-05-06T14:44:27.504Z,4520.00
2018-05-06T14:46:20.897Z,4500.00
2018-05-06T14:47:20.734Z,4492.00
2018-05-06T14:49:14.047Z,4492.00
2018-05-06T14:50:13.972Z,4484.00
2018-05-06T14:52:07.265Z,4440.00
2018-05-06T14:53:07.211Z,4432.00
2018-05-06T14:55:00.520Z,4424.00
2018-05-06T14:56:00.501Z,4420.00
2018-05-06T14:57:53.862Z,4392.00
2018-05-06T14:58:53.681Z,4400.00
2018-05-06T15:00:46.975Z,4376.00
2018-05-06T15:01:46.921Z,4360.00
2018-05-06T15:03:40.372Z,4340.00
2018-05-06T15:04:40.151Z,4336.00
2018-05-06T15:06:33.446Z,4328.00
2018-05-06T15:07:33.388Z,4308.00
2018-05-06T15:09:26.705Z,4280.00
2018-05-06T15:10:26.696Z,4276.00
2018-05-06T15:12:19.908Z,4264.00
2018-05-06T15:13:19.858Z,4276.00
2018-05-06T15:15:13.170Z,4260.00
2018-05-06T15:16:13.097Z,4244.00
2018-05-06T15:18:06.428Z,4216.00
2018-05-06T15:19:06.326Z,4216.00
2018-05-06T15:20:59.717Z,4192.00
2018-05-06T15:21:59.555Z,4168.00
2018-05-06T15:23:52.858Z,4168.00
2018-05-06T15:24:52.784Z,4160.00
2018-05-06T15:26:46.176Z,4156.00
2018-05-06T15:27:46.014Z,4128.00
2018-05-06T15:29:39.519Z,4108.00
2018-05-06T15:30:39.451Z,4108.00
2018-05-06T15:32:32.731Z,4084.00
2018-05-06T15:33:32.676Z,4084.00
2018-05-06T15:35:26.089Z,4056.00
2018-05-06T15:36:25.905Z,4052.00
2018-05-06T15:38:19.207Z,4032.00
2018-05-06T15:39:19.132Z,4012.00
2018-05-06T15:41:12.480Z,3984.00
2018-05-06T15:42:12.363Z,3980.00
2018-05-06T15:44:05.665Z,3968.00
2018-05-06T15:45:05.591Z,3956.00
2018-05-06T15:46:58.880Z,3924.00
2018-05-06T15:47:58.820Z,3924.00
2018-05-06T15:49:52.733Z,3892.00
2018-05-06T15:50:52.046Z,3880.00
2018-05-06T15:52:45.328Z,3860.00
2018-05-06T15:53:45.274Z,3932.00
2018-05-06T15:55:38.685Z,3940.00
2018-05-06T15:56:38.501Z,3908.00
2018-05-06T15:58:31.802Z,3924.00
2018-05-06T15:59:31.729Z,3904.00
2018-05-06T16:01:25.120Z,3872.00
2018-05-06T16:02:24.957Z,3864.00
2018-05-06T16:04:18.348Z,3840.00
2018-05-06T16:05:18.276Z,3824.00
2018-05-06T16:07:11.561Z,3796.00
2018-05-06T16:08:11.505Z,3784.00
2018-05-06T16:10:04.807Z,3744.00
2018-05-06T16:11:04.734Z,3736.00
2018-05-06T16:12:58.039Z,3700.00
2018-05-06T16:13:57.974Z,3672.00
2018-05-06T16:15:51.265Z,3628.00
2018-05-06T16:16:51.192Z,3616.00
2018-05-06T16:18:44.492Z,3572.00
2018-05-06T16:19:44.419Z,3556.00
2018-05-06T16:21:37.811Z,3512.00
2018-05-06T16:22:37.657Z,3480.00
2018-05-06T16:24:30.949Z,3424.00
2018-05-06T16:25:30.877Z,3400.00
2018-05-06T16:27:24.158Z,3356.00
2018-05-06T16:28:24.106Z,3336.00
2018-05-06T16:30:17.416Z,3276.00
2018-05-06T16:31:17.343Z,3272.00
2018-05-06T16:33:10.634Z,3220.00
2018-05-06T16:34:10.581Z,3212.00
2018-05-06T16:36:03.899Z,3172.00
2018-05-06T16:37:03.828Z,3152.00
2018-05-06T16:38:57.138Z,3116.00
2018-05-06T16:39:57.072Z,3100.00
2018-05-06T16:41:50.455Z,3064.00
2018-05-06T16:42:50.302Z,3040.00
2018-05-06T16:44:43.610Z,3012.00
2018-05-06T16:45:43.577Z,3008.00
2018-05-06T16:47:36.928Z,2960.00
2018-05-06T16:48:36.766Z,2952.00
2018-05-06T16:50:30.075Z,2920.00
2018-05-06T16:51:30.000Z,2900.00
2018-05-06T16:53:23.295Z,2872.00
2018-05-06T16:54:23.239Z,2848.00
2018-05-06T16:56:16.556Z,2816.00
2018-05-06T16:57:16.490Z,2780.00
2018-05-06T16:59:09.789Z,2736.00
2018-05-06T17:00:09.715Z,2724.00
2018-05-06T17:02:03.009Z,2680.00
2018-05-06T17:03:02.957Z,2676.00
2018-05-06T17:04:56.356Z,2652.00
2018-05-06T17:05:56.278Z,2640.00
2018-05-06T17:07:49.559Z,2604.00
2018-05-06T17:08:49.505Z,2576.00
2018-05-06T17:10:42.816Z,2540.00
2018-05-06T17:11:42.742Z,2524.00
2018-05-06T17:13:36.035Z,2468.00
2018-05-06T17:14:35.980Z,2480.00
2018-05-06T17:16:29.289Z,2368.00
2018-05-06T17:17:29.224Z,2348.00
2018-05-06T17:19:22.636Z,2308.00
2018-05-06T17:20:22.458Z,2280.00
2018-05-06T17:22:15.766Z,2232.00
2018-05-06T17:23:15.747Z,2212.00
2018-05-06T17:25:09.022Z,2156.00
2018-05-06T17:26:08.946Z,2128.00
2018-05-06T17:28:02.224Z,2092.00
2018-05-06T17:29:02.175Z,2064.00
2018-05-06T17:30:56.088Z,2020.00
2018-05-06T17:31:55.427Z,2000.00
2018-05-06T17:33:48.746Z,1952.00
2018-05-06T17:34:48.685Z,1928.00
2018-05-06T17:36:41.997Z,1896.00
2018-05-06T17:37:41.923Z,1872.00
2018-05-06T17:39:35.233Z,1836.00
2018-05-06T17:40:35.160Z,1816.00
2018-05-06T17:42:28.453Z,1772.00
2018-05-06T17:43:28.400Z,1756.00
2018-05-06T17:45:21.740Z,1720.00
2018-05-06T17:46:21.658Z,1688.00
2018-05-06T17:48:15.948Z,1648.00
2018-05-06T17:49:15.893Z,1620.00